Detall de PIREP

Printer-friendly versionPDF version

[2012/08/18 17:40:00]
Flight IATA:CT1001
Pilot Number:026
Company ICAO:CAT
Aircraft Type:DC85/A
PAX:0
Aircraft Registration:CARGO
Departing Airport: LEMH
Destination Airport: LFKJ
Alternate Airport:LIEO
Online: VATSIM
Route:MEROS B16 LUMAS UT16 TINOT
Flight Level:F200
No Slew and time accel
No pause
Crash detect
Detect pilot in Cockpit between each 30 and 45 minutes
17:40 Zero fuel Weight: 187231 Lbs, Fuel Weight: 24001 Lbs
17:40 VATSIM:LEMH 181730Z 10005KT 060V130 CAVOK 29/21 Q1017
17:40 VATSIM:LFKJ 181730Z 21004KT CAVOK 29/23 Q1017 NOSIG
17:40 VOICE CATALONIAN / MEDITERRANEAN ODYSSEY LEG1
17:43 Parking Brakes off
17:54 Take-off
17:54 Take off Weight: 210081 Lbs
17:54 Wind: 087º @ 005 Knots Heading: 011º
17:54 POS N39º 52´ 25´´ E004º 13´ 16´´
17:54 Gear Up: 183 Knots
17:54 Flaps:2 at 183 Knots
17:54 Flaps:1 at 184 Knots
17:55 Flaps:0 at 189 Knots
18:03 TOC
18:03 Fuel Weight: 19514 Lb
18:09 Wind:134º@012 Knots Heading: 011º Ground Speed: 444 Knots Altitude 20114 ft
18:24 Wind:350º@042 Knots Heading: 092º Ground Speed: 451 Knots Altitude 20134 ft
18:34 TOD
18:34 Fuel Weight: 12785 Lb
18:39 Wind:014º@011 Knots Heading: 108º Ground Speed: 346 Knots Altitude 12234 ft
18:42 Gear Down: 245 Knots
18:46 Gear Up: 133 Knots
18:52 Flaps:1 at 197 Knots
18:54 Wind:025º@006 Knots Heading: 037º Ground Speed: 195 Knots Altitude 3008 ft
18:54 Gear Down: 189 Knots
18:54 Flaps:2 at 152 Knots
18:55 Flaps:3 at 154 Knots
18:56 Flaps:4 at 160 Knots
18:58 Flaps:5 at 147 Knots
18:58 TouchDown:Rate -162 ft/min Speed: 124 Knots
18:59 Land
18:59 Wind:015º@005 Knots
18:59 Heading: 025º
18:59 Flight Duration: 01:05
18:59 Landing Weight: 197216 Lbs
18:59 POS N41º 55´ 34´´ E008º 48´ 14´´
19:03 Parking brakes on
19:03 Block to Block Duration: 01:20
19:03 Final Fuel: 9638 Lbls
19:03 Spent Fuel: 14362 Lbls
19:03 Flight Length: 282 NM
19:03 TOD Land Length: 60 NM

Exportar CSV

Powered by Drupal - Modified by Danger4k